Time;durP1;ratioP1;P1;durP2;ratioP2;P2;SDS_P1;SDS_P2;PMS_P1;PMS_P2;Temp;Humidity;BMP_temperature;BMP_pressure;BME280_temperature;BME280_humidity;BME280_pressure;Samples;Min_cycle;Max_cycle;Signal;HPM_P1;HPM_P2
2021/04/10 00:01:21;;;;;;;21.45;11.48;;;;;;;7.11;62.88;100047.91;8679500;33;20752;-74
2021/04/10 00:06:24;;;;;;;21.30;9.77;;;;;;;7.05;62.92;100033.16;8679637;33;20729;-73
2021/04/10 00:11:26;;;;;;;16.60;9.75;;;;;;;7.06;63.12;100045.53;8679492;33;20228;-74
2021/04/10 00:16:28;;;;;;;19.38;10.02;;;;;;;7.10;63.17;100046.16;8679664;33;20221;-75
2021/04/10 00:21:31;;;;;;;18.70;9.75;;;;;;;7.08;63.36;100035.63;8679171;33;20324;-75
2021/04/10 00:26:34;;;;;;;18.85;9.93;;;;;;;7.05;63.51;100030.50;8679508;33;20239;-74
2021/04/10 00:31:36;;;;;;;18.02;9.13;;;;;;;7.03;63.72;100043.94;8679541;33;20232;-75
2021/04/10 00:36:39;;;;;;;21.45;9.68;;;;;;;7.04;63.71;100050.97;8703998;33;20312;-75
2021/04/10 00:41:41;;;;;;;17.83;9.43;;;;;;;6.99;63.94;100052.28;8716054;33;20238;-75
2021/04/10 00:46:43;;;;;;;19.55;9.82;;;;;;;7.01;63.68;100045.00;8711065;33;20239;-74
2021/04/10 00:51:47;;;;;;;21.02;10.20;;;;;;;6.97;64.04;100041.72;8711943;33;20223;-73
2021/04/10 00:56:49;;;;;;;18.77;9.85;;;;;;;7.04;64.04;100040.28;8714450;33;20236;-75
2021/04/10 01:01:51;;;;;;;18.88;9.25;;;;;;;7.06;63.88;100043.72;8682799;33;20280;-75
2021/04/10 01:06:54;;;;;;;18.02;10.02;;;;;;;7.09;63.53;100058.69;8660405;33;20301;-75
2021/04/10 01:12:26;;;;;;;15.57;8.48;;;;;;;7.01;63.80;100050.34;8683214;33;20225;-74
2021/04/10 01:17:33;;;;;;;16.15;7.47;;;;;;;6.95;64.21;100050.81;8634419;34;20244;-74
2021/04/10 01:22:57;;;;;;;13.30;6.95;;;;;;;6.76;66.41;100052.06;8626425;33;20232;-74
2021/04/10 01:28:01;;;;;;;14.73;7.05;;;;;;;6.48;68.52;100047.81;8659190;33;20687;-74
2021/04/10 01:33:11;;;;;;;14.38;6.28;;;;;;;6.22;69.85;100043.41;8658697;33;21874;-74
2021/04/10 01:38:20;;;;;;;14.85;6.95;;;;;;;6.08;70.82;100057.66;8683062;33;20293;-74
2021/04/10 01:43:22;;;;;;;16.92;6.72;;;;;;;5.92;71.31;100065.84;8682427;33;20228;-75
2021/04/10 01:48:28;;;;;;;15.48;6.60;;;;;;;5.93;72.55;100064.91;8681233;33;20282;-75
2021/04/10 01:53:33;;;;;;;13.00;6.53;;;;;;;5.89;73.00;100080.22;8681188;33;20247;-75
2021/04/10 01:58:38;;;;;;;14.40;7.07;;;;;;;5.86;73.38;100075.09;8682711;33;20690;-74
2021/04/10 02:03:45;;;;;;;17.08;7.80;;;;;;;5.87;73.95;100078.63;8680600;33;20271;-74
2021/04/10 02:08:52;;;;;;;15.73;7.45;;;;;;;5.89;74.72;100093.56;8658170;33;20283;-73
2021/04/10 02:14:14;;;;;;;17.75;8.38;;;;;;;5.86;75.17;100085.75;8660476;33;20233;-75
2021/04/10 02:19:25;;;;;;;15.48;7.82;;;;;;;5.84;75.13;100079.69;8684075;33;20759;-73
2021/04/10 02:24:36;;;;;;;17.75;7.70;;;;;;;5.86;75.72;100091.09;8681930;33;20252;-74
2021/04/10 02:29:42;;;;;;;17.77;9.07;;;;;;;5.86;75.79;100090.25;8680632;33;21474;-75
2021/04/10 02:34:54;;;;;;;19.50;8.23;;;;;;;5.82;76.01;100083.44;8680347;33;20232;-75
2021/04/10 02:39:57;;;;;;;16.58;7.68;;;;;;;5.85;76.35;100092.06;8680458;33;20224;-74
2021/04/10 02:45:04;;;;;;;16.67;7.28;;;;;;;5.84;76.53;100092.16;8681306;33;20271;-75
2021/04/10 02:50:12;;;;;;;16.25;7.25;;;;;;;5.83;76.66;100099.28;8679794;33;20279;-74
2021/04/10 02:55:20;;;;;;;20.98;8.75;;;;;;;5.80;76.86;100091.50;8677328;33;20681;-75
2021/04/10 03:00:25;;;;;;;17.52;7.00;;;;;;;5.76;76.93;100084.69;8678479;33;21872;-75
2021/04/10 03:05:30;;;;;;;16.02;6.90;;;;;;;5.74;77.02;100083.91;8678596;33;20232;-75
2021/04/10 03:10:33;;;;;;;17.02;7.80;;;;;;;5.78;77.04;100079.22;8677264;33;20236;-75
2021/04/10 03:15:36;;;;;;;16.85;7.53;;;;;;;5.71;77.10;100076.97;8689544;33;20728;-74
2021/04/10 03:20:40;;;;;;;17.23;8.30;;;;;;;5.75;77.16;100093.63;8678083;33;20254;-74
2021/04/10 03:25:43;;;;;;;17.98;7.95;;;;;;;5.79;77.12;100087.13;8685386;33;20227;-74
2021/04/10 03:30:48;;;;;;;20.08;8.02;;;;;;;5.83;77.01;100099.28;8693165;33;20224;-74
2021/04/10 03:35:58;;;;;;;15.45;7.60;;;;;;;5.85;77.06;100099.22;8683152;33;20220;-74
2021/04/10 03:41:05;;;;;;;20.92;8.52;;;;;;;5.81;76.74;100111.00;8694243;33;20704;-74
2021/04/10 03:46:08;;;;;;;26.15;9.40;;;;;;;5.73;75.99;100104.38;8681101;33;20298;-75
2021/04/10 03:51:12;;;;;;;26.35;10.18;;;;;;;5.70;76.39;100104.59;8696630;33;20316;-74
2021/04/10 03:56:20;;;;;;;24.65;9.10;;;;;;;5.71;75.98;100103.63;8676882;33;20255;-75
2021/04/10 04:01:23;;;;;;;21.17;9.40;;;;;;;5.70;76.38;100115.25;8675573;33;20871;-75
2021/04/10 04:06:27;;;;;;;23.90;9.88;;;;;;;5.79;76.45;100112.91;8677190;33;20267;-75
2021/04/10 04:11:30;;;;;;;21.17;10.07;;;;;;;5.82;76.40;100118.94;8677854;33;20271;-75
2021/04/10 04:16:32;;;;;;;19.10;8.88;;;;;;;5.81;76.30;100106.53;8643803;33;20232;-74
2021/04/10 04:21:35;;;;;;;17.27;9.15;;;;;;;5.73;76.33;100117.72;8677237;33;20235;-75
2021/04/10 04:26:37;;;;;;;21.67;8.18;;;;;;;5.68;75.89;100126.97;8681885;33;20278;-75
2021/04/10 04:31:39;;;;;;;17.77;7.20;;;;;;;5.58;75.13;100129.34;8681650;33;20232;-74
2021/04/10 04:36:43;;;;;;;19.27;8.38;;;;;;;5.50;74.88;100150.31;8681771;33;20236;-74
2021/04/10 04:41:45;;;;;;;23.77;9.52;;;;;;;5.45;74.32;100144.41;8681853;33;20228;-74
2021/04/10 04:46:47;;;;;;;20.40;9.32;;;;;;;5.41;74.69;100151.75;8657509;33;20759;-74
2021/04/10 04:51:53;;;;;;;17.75;8.55;;;;;;;5.40;74.68;100165.16;8680215;33;20650;-74
2021/04/10 04:56:55;;;;;;;19.73;9.27;;;;;;;5.38;74.07;100167.09;8681100;33;20631;-74
2021/04/10 05:01:57;;;;;;;20.15;9.43;;;;;;;5.36;74.29;100171.63;8657029;33;20251;-74
2021/04/10 05:07:01;;;;;;;18.30;9.05;;;;;;;5.44;74.81;100172.00;8681357;33;20782;-74
2021/04/10 05:12:05;;;;;;;19.65;8.77;;;;;;;5.47;74.67;100190.47;8684850;33;20225;-75
2021/04/10 05:17:07;;;;;;;20.52;8.70;;;;;;;5.47;74.48;100195.78;8696311;33;20224;-75
2021/04/10 05:22:11;;;;;;;14.55;7.30;;;;;;;5.39;73.54;100200.75;8682222;33;20741;-75
2021/04/10 05:27:13;;;;;;;20.65;7.38;;;;;;;5.38;73.76;100209.69;8689886;33;20232;-75
2021/04/10 05:32:15;;;;;;;15.60;6.40;;;;;;;5.31;73.51;100219.84;8681305;33;20235;-74
2021/04/10 05:37:18;;;;;;;13.30;5.40;;;;;;;5.22;72.97;100218.63;8681406;33;20315;-74
2021/04/10 05:42:20;;;;;;;9.95;4.60;;;;;;;5.32;73.34;100231.38;8681369;33;20235;-74
2021/04/10 05:47:22;;;;;;;13.10;4.68;;;;;;;5.43;73.53;100244.88;8681302;33;20224;-74
2021/04/10 05:52:25;;;;;;;12.75;4.78;;;;;;;5.46;72.87;100245.56;8680912;33;20637;-74
2021/04/10 05:57:27;;;;;;;11.27;4.28;;;;;;;5.46;73.34;100245.56;8680790;33;20652;-74
2021/04/10 06:02:30;;;;;;;9.52;4.53;;;;;;;5.44;73.31;100238.63;8734932;33;20234;-74
2021/04/10 06:07:33;;;;;;;16.05;5.35;;;;;;;5.38;73.36;100242.50;8738297;33;20314;-75
2021/04/10 06:12:35;;;;;;;11.73;6.32;;;;;;;5.42;73.75;100246.69;8737264;33;20224;-74
2021/04/10 06:17:37;;;;;;;12.98;5.50;;;;;;;5.60;74.18;100250.03;8710154;33;20236;-74
2021/04/10 06:22:41;;;;;;;18.20;6.47;;;;;;;5.66;73.10;100252.31;8704631;33;20241;-74
2021/04/10 06:27:43;;;;;;;16.40;7.35;;;;;;;5.73;72.39;100253.66;8714190;33;20220;-74
2021/04/10 06:32:45;;;;;;;18.23;7.72;;;;;;;5.95;72.12;100254.94;8713019;33;20230;-75
2021/04/10 06:37:48;;;;;;;25.20;13.05;;;;;;;6.19;71.02;100268.50;8736806;33;20634;-75
2021/04/10 06:42:50;;;;;;;17.17;8.52;;;;;;;6.42;72.00;100272.38;8736488;33;20224;-76
2021/04/10 06:47:55;;;;;;;22.33;12.82;;;;;;;6.62;71.57;100263.88;8737259;33;20227;-76
2021/04/10 06:52:59;;;;;;;21.60;11.73;;;;;;;6.91;70.69;100277.16;8736281;33;20238;-76
2021/04/10 06:58:04;;;;;;;21.17;8.52;;;;;;;6.84;68.38;100282.00;8736882;33;20620;-76
2021/04/10 07:03:06;;;;;;;18.95;8.50;;;;;;;6.77;68.23;100288.69;8737168;33;20235;-75
2021/04/10 07:08:09;;;;;;;18.20;8.70;;;;;;;6.81;67.34;100281.34;8737810;33;21552;-74
2021/04/10 07:13:12;;;;;;;17.35;8.15;;;;;;;6.76;66.73;100278.97;8711550;33;20225;-75
2021/04/10 07:18:15;;;;;;;19.13;8.65;;;;;;;7.05;65.95;100282.41;8675961;33;20231;-75
2021/04/10 07:23:18;;;;;;;15.73;8.88;;;;;;;6.85;65.08;100288.19;8677382;33;20228;-75
2021/04/10 07:28:24;;;;;;;19.50;8.50;;;;;;;6.84;65.99;100284.66;8677520;33;20221;-76
2021/04/10 07:33:28;;;;;;;19.70;8.80;;;;;;;6.90;65.84;100290.59;8677860;33;20240;-75
2021/04/10 07:38:34;;;;;;;18.90;8.82;;;;;;;6.98;65.68;100297.13;8724259;33;20232;-76
2021/04/10 07:43:38;;;;;;;22.25;8.60;;;;;;;7.08;64.78;100294.69;8736824;33;20238;-76
2021/04/10 07:48:58;;;;;;;21.27;8.88;;;;;;;6.89;64.31;100304.91;8741699;33;20234;-76
2021/04/10 07:54:22;;;;;;;18.13;8.88;;;;;;;7.01;64.54;100310.25;8760409;33;20234;-75
2021/04/10 07:59:25;;;;;;;17.85;8.63;;;;;;;7.12;64.32;100311.38;8774008;33;20920;-75
2021/04/10 08:04:27;;;;;;;14.10;7.53;;;;;;;7.28;63.56;100315.56;8797907;33;20234;-75
2021/04/10 08:09:33;;;;;;;20.00;9.02;;;;;;;7.81;63.36;100311.94;8765187;33;20239;-76
2021/04/10 08:14:42;;;;;;;17.25;8.55;;;;;;;8.40;60.70;100313.00;8723208;33;20233;-74
2021/04/10 08:19:44;;;;;;;18.00;9.02;;;;;;;8.89;59.09;100316.56;8670555;33;20240;-76
2021/04/10 08:24:48;;;;;;;18.13;8.60;;;;;;;8.79;58.79;100324.44;8657432;34;20653;-76
2021/04/10 08:29:51;;;;;;;20.48;9.93;;;;;;;8.55;59.52;100327.09;8682329;34;20220;-76
2021/04/10 08:34:54;;;;;;;18.33;9.73;;;;;;;8.15;60.09;100321.94;8681596;34;21745;-75
2021/04/10 08:39:58;;;;;;;21.42;9.98;;;;;;;7.88;60.78;100327.44;8681564;34;20228;-76
2021/04/10 08:45:02;;;;;;;21.60;10.40;;;;;;;8.14;61.08;100322.88;8680604;34;20232;-75
2021/04/10 08:50:07;;;;;;;22.05;10.15;;;;;;;8.13;60.46;100336.41;8682244;34;20249;-75
2021/04/10 08:55:13;;;;;;;21.92;10.63;;;;;;;8.20;60.04;100343.03;8684575;34;20240;-76
2021/04/10 09:00:24;;;;;;;22.85;11.43;;;;;;;8.24;60.01;100351.69;8720501;33;20638;-76
2021/04/10 09:05:47;;;;;;;25.90;11.98;;;;;;;8.17;60.57;100338.75;8767093;33;20226;-76
2021/04/10 09:10:58;;;;;;;24.08;11.80;;;;;;;8.29;60.19;100360.25;8771136;33;20926;-76
2021/04/10 09:16:31;;;;;;;27.40;12.77;;;;;;;8.34;59.98;100352.75;8769107;33;20288;-75
2021/04/10 09:21:45;;;;;;;27.73;11.60;;;;;;;8.34;60.43;100355.41;8711319;33;21525;-75
2021/04/10 09:27:01;;;;;;;23.90;11.45;;;;;;;8.42;60.03;100363.75;8742218;33;21386;-75
2021/04/10 09:32:05;;;;;;;27.10;13.07;;;;;;;8.70;60.25;100367.97;8740018;33;20223;-75
2021/04/10 09:37:07;;;;;;;24.00;12.15;;;;;;;8.95;59.22;100369.69;8739978;33;20239;-75
2021/04/10 09:42:39;;;;;;;19.65;10.30;;;;;;;9.22;58.09;100371.28;8740586;33;20948;-75
2021/04/10 09:48:38;;;;;;;23.88;12.32;;;;;;;9.40;57.10;100367.16;8742662;33;20702;-77
2021/04/10 09:53:49;;;;;;;18.70;10.57;;;;;;;9.32;57.73;100374.94;8682753;34;20228;-74
2021/04/10 09:58:56;;;;;;;20.45;11.52;;;;;;;9.48;57.10;100367.44;8713513;33;20238;-76
2021/04/10 10:03:58;;;;;;;26.95;12.07;;;;;;;9.59;56.64;100373.81;8751547;33;20227;-75
2021/04/10 10:09:01;;;;;;;23.88;10.93;;;;;;;9.55;56.93;100369.66;8773748;33;20896;-76
2021/04/10 10:14:04;;;;;;;21.38;11.10;;;;;;;9.73;56.89;100370.91;8766650;33;20304;-75
2021/04/10 10:19:18;;;;;;;31.58;13.63;;;;;;;9.45;57.36;100365.00;8738691;33;20232;-75
2021/04/10 10:24:22;;;;;;;28.20;10.88;;;;;;;9.42;57.46;100373.28;8724809;33;20220;-75
2021/04/10 10:29:26;;;;;;;49.70;16.58;;;;;;;9.25;57.88;100369.22;8707985;33;20226;-75
2021/04/10 10:34:35;;;;;;;27.88;11.65;;;;;;;9.13;58.26;100369.25;8899943;32;20533;-73
2021/04/10 10:39:39;;;;;;;21.17;9.65;;;;;;;9.00;58.31;100372.88;10455584;28;21386;-75
2021/04/10 10:44:48;;;;;;;20.90;9.98;;;;;;;9.04;58.55;100379.69;10469189;28;20232;-75
2021/04/10 10:49:52;;;;;;;19.77;9.40;;;;;;;9.34;58.23;100367.66;10468016;28;20244;-73
2021/04/10 10:55:01;;;;;;;24.65;10.52;;;;;;;9.57;56.97;100349.81;10467137;28;20240;-75
2021/04/10 11:00:08;;;;;;;23.42;11.40;;;;;;;9.66;56.86;100361.66;10467557;28;20607;-75
2021/04/10 11:05:12;;;;;;;22.83;12.93;;;;;;;10.09;56.74;100345.75;10432869;28;20379;-75
2021/04/10 11:10:15;;;;;;;26.25;11.70;;;;;;;10.85;54.46;100351.22;10423405;28;20240;-75
2021/04/10 11:15:17;;;;;;;26.15;11.82;;;;;;;11.48;52.93;100337.91;10421252;28;20712;-75
2021/04/10 11:20:32;;;;;;;20.60;11.15;;;;;;;11.90;51.56;100324.38;10423066;28;20240;-75
2021/04/10 11:25:48;;;;;;;22.08;11.48;;;;;;;11.55;51.86;100331.03;10421255;28;20260;-75
2021/04/10 11:31:03;;;;;;;23.75;12.68;;;;;;;11.53;52.07;100319.53;10442087;28;20709;-75
2021/04/10 11:36:06;;;;;;;19.98;9.82;;;;;;;11.56;52.32;100318.41;10491182;28;20231;-76
2021/04/10 11:41:08;;;;;;;23.55;11.52;;;;;;;11.10;52.96;100316.91;10505767;28;20243;-75
2021/04/10 11:46:15;;;;;;;23.75;12.32;;;;;;;10.62;53.87;100315.53;10476563;28;20287;-76
2021/04/10 11:51:25;;;;;;;22.15;11.98;;;;;;;10.07;55.27;100320.84;10454310;28;20587;-74
2021/04/10 11:56:30;;;;;;;22.17;11.95;;;;;;;9.70;56.15;100312.13;10454486;28;21370;-74
2021/04/10 12:01:32;;;;;;;19.48;10.13;;;;;;;9.52;56.94;100322.50;10454490;28;21431;-75
2021/04/10 12:06:37;;;;;;;19.88;10.32;;;;;;;9.50;56.95;100317.22;10427228;28;20240;-75
2021/04/10 12:11:41;;;;;;;21.73;11.27;;;;;;;9.14;57.59;100312.03;10435470;28;20240;-76
2021/04/10 12:16:44;;;;;;;23.23;12.02;;;;;;;9.02;58.05;100313.81;10435892;28;20240;-76
2021/04/10 12:21:47;;;;;;;21.70;10.60;;;;;;;9.31;57.54;100313.41;10434852;28;20229;-75
2021/04/10 12:26:49;;;;;;;19.00;10.23;;;;;;;9.60;57.19;100300.41;10435219;28;20775;-76
2021/04/10 12:31:51;;;;;;;22.02;10.07;;;;;;;9.82;56.86;100307.63;10435330;28;20251;-75
2021/04/10 12:36:54;;;;;;;21.90;10.18;;;;;;;10.04;55.87;100291.59;10437560;28;20275;-75
2021/04/10 12:41:56;;;;;;;22.70;10.65;;;;;;;9.88;55.83;100283.06;10435894;28;20228;-75
2021/04/10 12:46:58;;;;;;;22.60;10.07;;;;;;;9.65;56.39;100279.47;10434396;28;21504;-75
2021/04/10 12:52:01;;;;;;;21.23;10.32;;;;;;;10.02;56.69;100274.75;10433449;28;20608;-75
2021/04/10 12:57:03;;;;;;;22.90;10.77;;;;;;;10.60;54.86;100266.44;10435499;28;20867;-74
2021/04/10 13:02:06;;;;;;;23.35;10.55;;;;;;;10.60;54.53;100253.00;10434585;28;20652;-75
2021/04/10 13:07:09;;;;;;;21.55;12.00;;;;;;;10.47;55.49;100238.88;10437834;28;20225;-75
2021/04/10 13:12:12;;;;;;;22.95;11.40;;;;;;;10.20;58.33;100233.94;10442240;28;20248;-74
2021/04/10 13:17:15;;;;;;;22.00;11.68;;;;;;;9.89;59.42;100225.72;10433009;28;20233;-76
2021/04/10 13:22:18;;;;;;;23.70;11.65;;;;;;;9.55;59.49;100230.22;10433191;28;20228;-76
2021/04/10 13:27:21;;;;;;;27.65;11.95;;;;;;;9.72;58.88;100219.00;10449140;28;21495;-74
2021/04/10 13:32:23;;;;;;;27.63;13.68;;;;;;;10.29;57.04;100220.66;10431074;28;20233;-73
2021/04/10 13:37:26;;;;;;;26.45;13.38;;;;;;;10.27;56.94;100205.63;10434771;28;20248;-76
2021/04/10 13:42:28;;;;;;;26.75;13.18;;;;;;;10.04;57.87;100194.97;10434373;28;20236;-75
2021/04/10 13:47:30;;;;;;;23.33;12.45;;;;;;;9.61;59.32;100206.44;10434153;28;20870;-74
2021/04/10 13:52:33;;;;;;;21.45;11.43;;;;;;;9.64;60.15;100189.25;10433504;28;20366;-75
2021/04/10 13:57:35;;;;;;;22.75;13.05;;;;;;;9.32;60.57;100183.78;10432490;28;20232;-77
2021/04/10 14:02:37;;;;;;;24.98;12.88;;;;;;;9.28;61.15;100180.50;10433531;28;20241;-74
2021/04/10 14:07:41;;;;;;;26.00;12.60;;;;;;;9.46;60.25;100170.13;10430590;28;21038;-74
2021/04/10 14:12:43;;;;;;;23.60;13.27;;;;;;;9.33;59.14;100170.25;10431510;28;20244;-74
2021/04/10 14:17:45;;;;;;;26.73;13.10;;;;;;;9.27;59.90;100155.53;10391846;28;20271;-74
2021/04/10 14:22:48;;;;;;;36.17;17.85;;;;;;;9.41;59.20;100154.41;10392801;28;20902;-74
2021/04/10 14:27:51;;;;;;;41.88;21.73;;;;;;;9.49;58.27;100149.28;10392796;28;20237;-77
2021/04/10 14:32:53;;;;;;;50.25;26.50;;;;;;;9.48;57.75;100144.03;10393681;28;20256;-75
2021/04/10 14:37:56;;;;;;;50.00;23.48;;;;;;;9.63;57.77;100144.66;10394321;28;20240;-75
2021/04/10 14:43:03;;;;;;;56.15;24.50;;;;;;;9.63;57.49;100145.50;10394226;28;20245;-74
2021/04/10 14:48:06;;;;;;;44.72;22.30;;;;;;;9.31;57.82;100140.03;10394792;28;20229;-75
2021/04/10 14:53:18;;;;;;;51.20;23.35;;;;;;;9.29;58.38;100136.63;10388229;28;20241;-75
2021/04/10 14:58:19;;;;;;;51.67;25.10;;;;;;;9.30;58.47;100138.34;10387620;28;20225;-73
2021/04/10 15:03:23;;;;;;;55.03;27.95;;;;;;;9.32;59.39;100119.44;10388044;28;20252;-74
2021/04/10 15:08:26;;;;;;;48.42;24.30;;;;;;;9.14;60.38;100121.78;10387475;28;20229;-75
2021/04/10 15:13:32;;;;;;;41.95;23.23;;;;;;;8.91;61.92;100127.09;10386578;28;21558;-75
2021/04/10 15:18:52;;;;;;;46.97;23.70;;;;;;;8.74;64.25;100111.50;10390952;28;20299;-74
2021/04/10 15:23:55;;;;;;;49.70;23.48;;;;;;;8.66;65.76;100111.22;10430704;28;20256;-73
2021/04/10 15:28:57;;;;;;;54.33;25.38;;;;;;;8.70;66.03;100108.22;10435032;28;20237;-73
2021/04/10 15:34:00;;;;;;;57.92;24.63;;;;;;;8.50;67.25;100103.53;10435408;28;20247;-75
2021/04/10 15:39:03;;;;;;;60.22;26.63;;;;;;;8.30;69.68;100092.50;10435401;28;20233;-74
2021/04/10 15:44:06;;;;;;;61.67;26.35;;;;;;;8.09;71.08;100086.09;10432904;28;20290;-73
2021/04/10 15:49:08;;;;;;;54.17;25.10;;;;;;;7.76;71.54;100086.78;10433414;28;20240;-74
2021/04/10 15:54:10;;;;;;;65.00;27.60;;;;;;;7.79;73.13;100079.41;10435092;28;20233;-74
2021/04/10 15:59:12;;;;;;;60.05;26.92;;;;;;;7.60;73.85;100079.91;10436676;28;21998;-74
2021/04/10 16:04:17;;;;;;;58.28;25.08;;;;;;;7.37;74.17;100072.72;10432604;28;20243;-74
2021/04/10 16:09:20;;;;;;;68.18;28.67;;;;;;;7.28;75.54;100059.06;10435235;28;20593;-75
2021/04/10 16:14:21;;;;;;;55.10;25.10;;;;;;;7.23;76.19;100063.03;10432815;28;21483;-74
2021/04/10 16:19:23;;;;;;;58.00;26.67;;;;;;;7.17;76.39;100056.31;10432987;28;20236;-74
2021/04/10 16:24:26;;;;;;;63.20;27.75;;;;;;;7.16;76.84;100056.41;10431924;28;20240;-74
2021/04/10 16:29:28;;;;;;;55.22;26.13;;;;;;;7.14;77.23;100045.84;10433249;28;20237;-74
2021/04/10 16:34:30;;;;;;;58.33;28.13;;;;;;;7.11;77.71;100040.72;10431885;28;20606;-74
2021/04/10 16:39:33;;;;;;;55.90;26.90;;;;;;;7.03;78.04;100027.06;10435144;28;20236;-74
2021/04/10 16:44:35;;;;;;;58.35;26.98;;;;;;;6.99;78.32;100017.56;10434146;28;20236;-73
2021/04/10 16:49:37;;;;;;;60.65;26.88;;;;;;;7.08;78.68;100016.91;10435066;28;20232;-74
2021/04/10 16:54:40;;;;;;;53.38;26.52;;;;;;;7.06;78.74;100000.13;10430997;28;20233;-74
2021/04/10 16:59:42;;;;;;;60.45;27.35;;;;;;;7.02;78.76;99987.97;10431765;28;20225;-72
2021/04/10 17:04:44;;;;;;;62.10;27.20;;;;;;;7.00;78.93;99971.22;10432041;28;20237;-73
2021/04/10 17:09:48;;;;;;;58.65;25.88;;;;;;;7.00;78.95;99964.06;10431243;28;21403;-73
2021/04/10 17:14:50;;;;;;;59.15;26.52;;;;;;;6.91;79.17;99978.09;10431570;28;20267;-73
2021/04/10 17:19:52;;;;;;;59.15;25.95;;;;;;;6.83;79.04;99959.91;10445381;28;20239;-73
2021/04/10 17:24:55;;;;;;;51.38;25.35;;;;;;;6.71;79.26;99952.75;10429217;28;20233;-74
2021/04/10 17:31:03;;;;;;;52.85;25.45;;;;;;;6.72;79.04;99946.47;8907726;32;20528;-73
2021/04/10 17:36:05;;;;;;;52.20;24.50;;;;;;;6.62;79.18;99951.63;10436356;28;20225;-74
2021/04/10 17:41:07;;;;;;;53.58;25.00;;;;;;;6.65;79.05;99936.34;10421586;28;20236;-74
2021/04/10 17:46:10;;;;;;;55.75;24.83;;;;;;;6.69;79.07;99917.34;10423154;28;20256;-75
2021/04/10 17:51:12;;;;;;;53.70;25.75;;;;;;;6.52;79.25;99901.66;10422354;28;20795;-73
2021/04/10 17:56:15;;;;;;;52.75;26.35;;;;;;;6.47;79.36;99909.16;10420873;28;20252;-74
2021/04/10 18:01:24;;;;;;;52.58;25.95;;;;;;;6.58;79.24;99902.09;10422788;28;20241;-73
2021/04/10 18:06:29;;;;;;;56.78;28.50;;;;;;;6.49;79.28;99894.75;10420672;28;20607;-74
2021/04/10 18:11:32;;;;;;;71.05;35.22;;;;;;;6.33;79.60;99872.78;10421366;28;20267;-73
2021/04/10 18:16:40;;;;;;;67.57;31.05;;;;;;;6.47;79.67;99871.78;10386418;28;67294;-72
2021/04/10 18:21:42;;;;;;;74.25;35.72;;;;;;;6.55;79.78;99869.44;10380434;28;20264;-73
2021/04/10 18:26:44;;;;;;;69.57;34.35;;;;;;;6.42;79.97;99868.59;10381237;28;20249;-72
2021/04/10 18:31:47;;;;;;;61.05;30.73;;;;;;;6.33;80.11;99856.78;10380334;28;20730;-74
2021/04/10 18:36:50;;;;;;;77.78;37.80;;;;;;;6.38;80.21;99851.97;10379119;28;20989;-73
2021/04/10 18:41:52;;;;;;;69.82;33.08;;;;;;;6.39;80.24;99843.88;10355057;28;20242;-74
2021/04/10 18:46:56;;;;;;;66.32;31.33;;;;;;;6.30;80.48;99825.84;10351244;28;20353;-72
2021/04/10 18:51:58;;;;;;;72.45;32.35;;;;;;;6.35;80.29;99834.38;10352232;28;20234;-73
2021/04/10 18:57:02;;;;;;;52.80;27.02;;;;;;;6.35;80.45;99825.53;10355212;28;20285;-73
2021/04/10 19:02:09;;;;;;;61.15;28.08;;;;;;;6.38;80.32;99826.13;10353226;28;20237;-73
2021/04/10 19:07:11;;;;;;;49.20;23.65;;;;;;;6.35;80.38;99825.53;10351869;28;20241;-72
2021/04/10 19:12:16;;;;;;;45.42;22.05;;;;;;;6.45;80.16;99815.91;10353145;28;20233;-73
2021/04/10 19:17:19;;;;;;;51.42;22.90;;;;;;;6.27;80.69;99812.72;10349836;28;20234;-73
2021/04/10 19:22:21;;;;;;;44.92;21.55;;;;;;;6.36;80.32;99809.41;10350773;28;20801;-72
2021/04/10 19:27:23;;;;;;;48.03;22.70;;;;;;;6.42;80.30;99797.44;10347862;28;20242;-72
2021/04/10 19:32:27;;;;;;;43.20;21.25;;;;;;;6.51;80.24;99801.25;10351940;28;20390;-73
2021/04/10 19:37:29;;;;;;;40.45;19.00;;;;;;;6.26;80.53;99797.69;10350305;28;20711;-73
2021/04/10 19:42:31;;;;;;;36.58;18.83;;;;;;;6.42;80.15;99784.09;10348921;28;20305;-73
2021/04/10 19:47:34;;;;;;;37.25;20.00;;;;;;;6.45;80.35;99777.69;10349319;28;20241;-72
2021/04/10 19:52:37;;;;;;;34.90;17.92;;;;;;;6.44;80.57;99778.63;10341117;28;20238;-73
2021/04/10 19:57:40;;;;;;;35.55;18.15;;;;;;;6.53;80.37;99773.50;10348908;28;20241;-73
2021/04/10 20:02:43;;;;;;;39.80;20.00;;;;;;;6.58;80.40;99770.47;10346177;28;20680;-72
2021/04/10 20:07:45;;;;;;;35.17;18.80;;;;;;;6.67;80.36;99768.94;10349183;28;20238;-73
2021/04/10 20:12:47;;;;;;;34.08;18.65;;;;;;;6.69;80.50;99759.88;10346301;28;20245;-73
2021/04/10 20:17:51;;;;;;;40.22;19.20;;;;;;;6.83;80.33;99761.50;10348666;28;20374;-73
2021/04/10 20:22:54;;;;;;;35.42;18.65;;;;;;;6.90;80.37;99753.91;10347767;28;20238;-73
2021/04/10 20:27:56;;;;;;;36.38;18.33;;;;;;;6.90;80.44;99754.75;10346873;28;20250;-73
2021/04/10 20:32:59;;;;;;;30.65;16.98;;;;;;;6.86;80.77;99750.59;10346577;28;20268;-74
2021/04/10 20:38:04;;;;;;;31.67;16.92;;;;;;;6.96;80.83;99740.91;10348099;28;20553;-74
2021/04/10 20:43:06;;;;;;;29.67;16.90;;;;;;;7.05;80.73;99732.22;10321137;28;20239;-73
2021/04/10 20:48:09;;;;;;;29.50;16.83;;;;;;;7.13;80.85;99746.78;10219636;28;20271;-74
2021/04/10 20:53:11;;;;;;;30.70;16.58;;;;;;;7.17;80.95;99735.75;10214118;28;20257;-74
2021/04/10 20:58:13;;;;;;;29.00;16.08;;;;;;;7.26;80.90;99735.03;10317174;28;20234;-73
2021/04/10 21:03:19;;;;;;;25.85;14.75;;;;;;;7.29;80.96;99731.28;10349694;28;20245;-73
2021/04/10 21:08:21;;;;;;;26.95;15.38;;;;;;;7.32;80.83;99720.34;10354713;28;20245;-74
2021/04/10 21:13:25;;;;;;;27.33;14.48;;;;;;;7.36;81.14;99726.34;10356078;28;20241;-73
2021/04/10 21:18:29;;;;;;;28.98;15.52;;;;;;;7.41;81.08;99716.13;10375427;28;20234;-73
2021/04/10 21:23:33;;;;;;;28.13;14.88;;;;;;;7.44;81.16;99718.56;10390195;28;20234;-73
2021/04/10 21:28:36;;;;;;;27.55;14.85;;;;;;;7.48;81.15;99722.69;10379498;28;20234;-73
2021/04/10 21:33:41;;;;;;;25.40;13.48;;;;;;;7.49;81.10;99713.72;10358028;28;20235;-73
2021/04/10 21:38:43;;;;;;;23.70;14.10;;;;;;;7.57;81.26;99707.75;10385937;28;20233;-74
2021/04/10 21:43:45;;;;;;;27.13;14.02;;;;;;;7.53;81.35;99708.97;10372890;28;20238;-73
2021/04/10 21:48:48;;;;;;;26.98;14.93;;;;;;;7.62;81.36;99702.88;10351978;28;20237;-74
2021/04/10 21:53:51;;;;;;;26.70;14.07;;;;;;;7.63;81.46;99697.44;10352429;28;20242;-74
2021/04/10 21:58:53;;;;;;;28.88;14.13;;;;;;;7.64;81.48;99696.44;10402206;28;20225;-73
2021/04/10 22:03:59;;;;;;;25.70;13.55;;;;;;;7.68;81.25;99689.06;10389570;28;20230;-73
2021/04/10 22:09:01;;;;;;;21.48;12.50;;;;;;;7.72;81.42;99686.00;10396246;28;20229;-73
2021/04/10 22:14:04;;;;;;;27.45;13.20;;;;;;;7.79;81.19;99694.38;10355917;28;20231;-73
2021/04/10 22:19:08;;;;;;;28.85;15.52;;;;;;;7.82;81.27;99682.59;10339674;28;21030;-73
2021/04/10 22:24:11;;;;;;;28.15;14.13;;;;;;;7.85;81.25;99677.00;10356321;28;20257;-73
2021/04/10 22:29:16;;;;;;;25.95;13.52;;;;;;;7.93;80.95;99683.41;10354479;28;20591;-72
2021/04/10 22:34:19;;;;;;;26.92;14.35;;;;;;;7.97;80.97;99673.31;10354445;28;20813;-72
2021/04/10 22:39:21;;;;;;;24.75;13.65;;;;;;;8.00;81.08;99680.25;10354891;28;20834;-73
2021/04/10 22:44:23;;;;;;;24.80;13.43;;;;;;;8.02;81.16;99668.44;10353141;28;20234;-72
2021/04/10 22:49:26;;;;;;;23.85;13.38;;;;;;;8.06;81.14;99666.34;10353994;28;20245;-73
2021/04/10 22:54:28;;;;;;;23.63;13.27;;;;;;;8.07;81.09;99654.69;10354096;28;20242;-74
2021/04/10 22:59:30;;;;;;;22.10;12.52;;;;;;;8.13;80.89;99664.88;10355281;28;20238;-72
2021/04/10 23:04:33;;;;;;;21.58;12.60;;;;;;;8.14;80.95;99651.38;10351946;28;21504;-72
2021/04/10 23:09:35;;;;;;;25.90;13.15;;;;;;;8.20;81.17;99641.13;10352243;28;20607;-74
2021/04/10 23:14:37;;;;;;;20.10;11.57;;;;;;;8.22;80.65;99644.53;10353009;28;20234;-73
2021/04/10 23:19:41;;;;;;;22.92;12.18;;;;;;;8.25;80.69;99636.25;10354840;28;20241;-73